Time;durP1;ratioP1;P1;durP2;ratioP2;P2;SDS_P1;SDS_P2;PMS_P1;PMS_P2;Temp;Humidity;BMP_temperature;BMP_pressure;BME280_temperature;BME280_humidity;BME280_pressure;Samples;Min_cycle;Max_cycle;Signal;HPM_P1;HPM_P2
2023/08/14 00:01:47;;;;;;;4.23;3.50;;;;;;;19.70;71.72;101037.28;4985069;28;21672;-71
2023/08/14 00:04:14;;;;;;;3.60;3.30;;;;;;;19.66;71.80;101043.75;4984195;28;20719;-70
2023/08/14 00:06:40;;;;;;;4.83;3.37;;;;;;;19.63;71.55;101044.50;4976707;28;20222;-70
2023/08/14 00:09:08;;;;;;;8.03;3.43;;;;;;;19.59;71.83;101039.13;4980332;28;20231;-70
2023/08/14 00:11:34;;;;;;;4.93;3.80;;;;;;;19.55;72.14;101032.22;4982833;28;20359;-70
2023/08/14 00:14:01;;;;;;;4.30;3.73;;;;;;;19.52;72.00;101038.31;4986128;28;20886;-70
2023/08/14 00:16:27;;;;;;;4.00;3.60;;;;;;;19.49;72.45;101044.41;4987461;28;20250;-70
2023/08/14 00:18:54;;;;;;;6.53;3.43;;;;;;;19.46;72.28;101045.16;4987675;28;20808;-71
2023/08/14 00:21:20;;;;;;;3.57;3.27;;;;;;;19.43;72.25;101046.69;4984465;28;22695;-70
2023/08/14 00:23:47;;;;;;;3.83;3.53;;;;;;;19.41;72.39;101046.28;4986458;28;20211;-70
2023/08/14 00:26:15;;;;;;;4.13;3.20;;;;;;;19.41;72.39;101050.88;4988373;28;20586;-70
2023/08/14 00:28:41;;;;;;;3.97;3.57;;;;;;;19.39;72.73;101055.81;4979741;28;20684;-70
2023/08/14 00:31:08;;;;;;;5.10;3.57;;;;;;;19.39;72.68;101056.59;4985797;28;21660;-70
2023/08/14 00:33:34;;;;;;;4.07;3.67;;;;;;;19.39;72.78;101058.50;4979518;28;20215;-70
2023/08/14 00:36:01;;;;;;;3.50;3.20;;;;;;;19.39;72.77;101059.28;4986954;28;20502;-70
2023/08/14 00:38:27;;;;;;;6.90;3.70;;;;;;;19.38;73.84;101052.38;4984873;28;20215;-70
2023/08/14 00:40:54;;;;;;;3.63;3.27;;;;;;;19.37;74.33;101061.56;4989714;28;20887;-70
2023/08/14 00:43:22;;;;;;;5.10;3.50;;;;;;;19.36;73.64;101061.94;4987630;28;20697;-71
2023/08/14 00:45:49;;;;;;;3.90;3.50;;;;;;;19.32;73.56;101061.91;4986783;28;21238;-71
2023/08/14 00:48:16;;;;;;;4.10;3.70;;;;;;;19.27;74.52;101070.31;4984939;28;20233;-70
2023/08/14 00:50:43;;;;;;;5.17;3.67;;;;;;;19.23;74.42;101060.69;4985515;28;20927;-70
2023/08/14 00:53:11;;;;;;;3.80;3.30;;;;;;;19.19;74.46;101073.25;4991766;28;20691;-71
2023/08/14 00:55:37;;;;;;;3.90;3.53;;;;;;;19.15;74.43;101064.44;4987959;28;21338;-70
2023/08/14 00:58:04;;;;;;;4.10;3.70;;;;;;;19.10;74.36;101064.78;4991320;28;20321;-70
2023/08/14 01:00:34;;;;;;;3.77;3.40;;;;;;;19.05;74.42;101062.44;4985984;28;20349;-70
2023/08/14 01:03:01;;;;;;;5.47;3.43;;;;;;;19.00;74.78;101066.19;4983680;28;20857;-70
2023/08/14 01:05:27;;;;;;;4.27;3.33;;;;;;;18.96;75.09;101062.75;4984504;28;21593;-70
2023/08/14 01:07:55;;;;;;;5.00;3.90;;;;;;;18.91;75.10;101073.00;4992967;28;20210;-70
2023/08/14 01:10:23;;;;;;;4.23;3.47;;;;;;;18.87;75.10;101069.53;4986166;28;20242;-70
2023/08/14 01:12:57;;;;;;;5.67;3.80;;;;;;;18.82;75.39;101064.50;4982783;28;20215;-70
2023/08/14 01:15:29;;;;;;;3.70;3.40;;;;;;;18.78;75.20;101074.44;4987092;28;20297;-71
2023/08/14 01:18:00;;;;;;;4.50;3.67;;;;;;;18.73;75.71;101085.47;4986383;28;20596;-70
2023/08/14 01:20:29;;;;;;;6.07;4.13;;;;;;;18.68;76.35;101080.44;4992310;28;20227;-70
2023/08/14 01:23:06;;;;;;;4.30;3.90;;;;;;;18.63;76.80;101081.53;4990975;28;20214;-70
2023/08/14 01:25:37;;;;;;;5.80;4.00;;;;;;;18.59;76.15;101086.09;4991801;28;21092;-70
2023/08/14 01:28:05;;;;;;;5.77;3.93;;;;;;;18.54;76.60;101081.06;4992480;28;20638;-70
2023/08/14 01:30:32;;;;;;;4.00;3.60;;;;;;;18.51;76.39;101089.03;4986039;28;20243;-71
2023/08/14 01:32:58;;;;;;;3.93;3.63;;;;;;;18.47;77.03;101088.25;4985740;28;20348;-70
2023/08/14 01:35:27;;;;;;;4.50;3.67;;;;;;;18.41;77.33;101084.34;4992208;28;20211;-70
2023/08/14 01:38:00;;;;;;;5.23;4.03;;;;;;;18.38;77.33;101091.19;4990407;28;20570;-70
2023/08/14 01:40:34;;;;;;;5.30;3.70;;;;;;;18.32;77.73;101086.56;4990268;28;20235;-71
2023/08/14 01:43:10;;;;;;;4.50;4.10;;;;;;;18.27;77.84;101092.94;4991094;28;21266;-70
2023/08/14 01:45:40;;;;;;;4.07;3.67;;;;;;;18.24;78.11;101088.34;4983350;28;20221;-70
2023/08/14 01:48:08;;;;;;;8.33;4.40;;;;;;;18.20;78.09;101087.53;4990997;28;20300;-70
2023/08/14 01:50:36;;;;;;;4.80;4.10;;;;;;;18.17;78.11;101084.81;4992980;28;20610;-70
2023/08/14 01:53:02;;;;;;;6.00;4.27;;;;;;;18.13;78.53;101092.78;4980246;28;21487;-70
2023/08/14 01:55:28;;;;;;;4.90;3.90;;;;;;;18.09;78.43;101088.50;4990472;28;20211;-70
2023/08/14 01:57:55;;;;;;;4.47;3.73;;;;;;;18.05;78.56;101090.41;4986885;28;20934;-71
2023/08/14 02:00:23;;;;;;;6.00;3.93;;;;;;;18.01;78.48;101087.66;4984053;28;20708;-70
2023/08/14 02:02:50;;;;;;;4.70;4.20;;;;;;;17.97;78.57;101094.88;4990706;28;20215;-70
2023/08/14 02:05:19;;;;;;;4.63;4.23;;;;;;;17.94;78.61;101086.78;4985855;28;22490;-70
2023/08/14 02:07:45;;;;;;;5.23;4.23;;;;;;;17.90;79.10;101089.41;4984779;28;21654;-70
2023/08/14 02:10:11;;;;;;;4.50;4.10;;;;;;;17.87;79.43;101092.84;4990214;28;20226;-70
2023/08/14 02:12:38;;;;;;;6.87;3.93;;;;;;;17.82;78.72;101093.16;4988228;28;20204;-70
2023/08/14 02:15:08;;;;;;;4.73;4.23;;;;;;;17.78;79.28;101095.00;4990437;28;20762;-71
2023/08/14 02:17:36;;;;;;;4.20;3.80;;;;;;;17.75;79.53;101103.72;4987842;28;21617;-70
2023/08/14 02:20:04;;;;;;;6.63;4.60;;;;;;;17.71;79.75;101089.56;4985202;28;20232;-70
2023/08/14 02:22:30;;;;;;;6.07;4.90;;;;;;;17.66;80.03;101094.44;4989604;28;20856;-70
2023/08/14 02:24:56;;;;;;;5.80;4.30;;;;;;;17.62;80.13;101097.06;4989844;28;20208;-70
2023/08/14 02:27:23;;;;;;;5.20;4.73;;;;;;;17.60;80.40;101093.19;4991662;28;20215;-70
2023/08/14 02:29:49;;;;;;;4.93;4.53;;;;;;;17.56;80.16;101089.69;4987820;28;20234;-70
2023/08/14 02:32:16;;;;;;;6.03;5.40;;;;;;;17.51;79.95;101093.47;4987645;28;20207;-70
2023/08/14 02:34:46;;;;;;;7.17;4.80;;;;;;;17.49;79.93;101089.59;4990786;28;20298;-71
2023/08/14 02:37:13;;;;;;;6.93;5.10;;;;;;;17.44;80.03;101092.56;4991019;28;20723;-70
2023/08/14 02:39:39;;;;;;;5.80;5.27;;;;;;;17.41;80.33;101090.63;4983887;28;20227;-71
2023/08/14 02:42:06;;;;;;;6.00;5.40;;;;;;;17.40;80.19;101086.41;4990971;28;20409;-71
2023/08/14 02:44:33;;;;;;;5.43;4.93;;;;;;;17.36;80.31;101091.66;4982263;28;20683;-70
2023/08/14 02:46:59;;;;;;;6.10;5.50;;;;;;;17.33;80.70;101095.03;4984124;28;20592;-70
2023/08/14 02:49:27;;;;;;;6.90;5.20;;;;;;;17.29;81.02;101096.88;4981642;28;20223;-70
2023/08/14 02:51:55;;;;;;;6.13;5.53;;;;;;;17.26;80.86;101094.16;4987754;28;20227;-70
2023/08/14 02:54:22;;;;;;;6.43;5.73;;;;;;;17.22;80.99;101110.13;4987826;28;20667;-71
2023/08/14 02:56:48;;;;;;;6.00;5.40;;;;;;;17.19;81.43;101113.47;4989877;28;20703;-71
2023/08/14 02:59:15;;;;;;;5.47;4.97;;;;;;;17.15;81.66;101110.00;4987433;28;20231;-71
2023/08/14 03:01:41;;;;;;;6.83;5.53;;;;;;;17.11;81.20;101108.38;4983421;28;20306;-71
2023/08/14 03:04:08;;;;;;;6.73;6.13;;;;;;;17.09;81.18;101103.44;4990148;28;20207;-70
2023/08/14 03:06:35;;;;;;;8.17;5.90;;;;;;;17.07;81.46;101102.25;4983460;28;20217;-70
2023/08/14 03:09:03;;;;;;;7.07;6.07;;;;;;;17.04;81.43;101103.72;4981218;28;20215;-70
2023/08/14 03:11:30;;;;;;;8.03;6.30;;;;;;;17.02;81.36;101102.53;4991883;28;20223;-71
2023/08/14 03:13:56;;;;;;;7.17;6.47;;;;;;;16.99;81.72;101104.03;4986987;28;20219;-71
2023/08/14 03:16:22;;;;;;;6.77;6.07;;;;;;;16.98;81.90;101109.69;4987620;28;20929;-71
2023/08/14 03:18:49;;;;;;;7.03;6.33;;;;;;;16.94;81.77;101117.66;4987838;28;20207;-70
2023/08/14 03:21:15;;;;;;;7.10;6.40;;;;;;;16.92;81.79;101111.13;4986084;28;20231;-71
2023/08/14 03:23:43;;;;;;;8.10;6.17;;;;;;;16.88;81.87;101116.38;4981122;28;20219;-71
2023/08/14 03:26:11;;;;;;;9.33;6.40;;;;;;;16.85;81.71;101110.97;4988562;28;20594;-70
2023/08/14 03:28:37;;;;;;;7.37;6.20;;;;;;;16.82;81.97;101109.03;4987049;28;20324;-70
2023/08/14 03:31:03;;;;;;;6.47;5.87;;;;;;;16.79;82.05;101109.72;4986348;28;21333;-70
2023/08/14 03:33:32;;;;;;;11.40;6.23;;;;;;;16.76;82.17;101115.78;4980491;28;20313;-71
2023/08/14 03:35:59;;;;;;;7.90;6.97;;;;;;;16.72;82.79;101113.03;4983937;28;20372;-70
2023/08/14 03:38:25;;;;;;;7.60;6.03;;;;;;;16.68;82.31;101117.56;4982985;28;21342;-70
2023/08/14 03:40:52;;;;;;;6.83;6.13;;;;;;;16.66;82.26;101113.69;4989303;28;20226;-71
2023/08/14 03:43:19;;;;;;;6.93;6.23;;;;;;;16.63;82.54;101111.72;4989575;28;21082;-71
2023/08/14 03:45:46;;;;;;;7.60;6.90;;;;;;;16.61;82.53;101112.06;4989031;28;20215;-71
2023/08/14 03:48:13;;;;;;;7.57;6.87;;;;;;;16.59;82.62;101114.31;4991529;28;20210;-70
2023/08/14 03:50:41;;;;;;;7.23;6.53;;;;;;;16.57;83.13;101116.56;4986716;28;20708;-71
2023/08/14 03:53:09;;;;;;;7.57;6.87;;;;;;;16.55;83.02;101124.16;4990625;28;20217;-70
2023/08/14 03:55:35;;;;;;;10.00;8.13;;;;;;;16.54;82.81;101116.50;4982335;28;20210;-70
2023/08/14 03:58:01;;;;;;;11.60;9.27;;;;;;;16.53;82.78;101130.94;4989538;28;20207;-70
2023/08/14 04:00:29;;;;;;;12.60;9.63;;;;;;;16.51;83.12;101131.28;4983589;28;20234;-71
2023/08/14 04:02:56;;;;;;;12.53;9.70;;;;;;;16.48;82.94;101124.03;4981558;28;20222;-71
2023/08/14 04:05:22;;;;;;;11.20;8.77;;;;;;;16.47;83.00;101130.47;4985172;28;20229;-70
2023/08/14 04:07:48;;;;;;;10.87;9.27;;;;;;;16.46;82.87;101136.91;4989415;28;21023;-70
2023/08/14 04:10:15;;;;;;;13.37;9.20;;;;;;;16.47;83.34;101141.16;4984981;28;20732;-70
2023/08/14 04:12:41;;;;;;;11.50;9.13;;;;;;;16.45;83.27;101138.03;4986674;28;20211;-71
2023/08/14 04:15:14;;;;;;;9.67;8.67;;;;;;;16.47;83.13;101135.03;4990156;28;20214;-70
2023/08/14 04:17:43;;;;;;;11.47;8.10;;;;;;;16.46;83.84;101139.56;4986123;28;21726;-71
2023/08/14 04:20:10;;;;;;;8.57;7.77;;;;;;;16.47;84.13;101143.81;4991161;28;20236;-70
2023/08/14 04:22:36;;;;;;;8.67;7.77;;;;;;;16.49;84.04;101146.09;4984616;28;20235;-71
2023/08/14 04:25:03;;;;;;;8.93;8.03;;;;;;;16.51;83.54;101144.63;4985545;28;20941;-71
2023/08/14 04:27:30;;;;;;;8.40;7.60;;;;;;;16.54;84.19;101138.59;4980589;28;20431;-71
2023/08/14 04:29:57;;;;;;;9.23;8.30;;;;;;;16.58;84.07;101149.34;4979434;28;21486;-70
2023/08/14 04:32:23;;;;;;;8.93;8.03;;;;;;;16.63;84.24;101141.84;4987854;28;20260;-71
2023/08/14 04:34:51;;;;;;;10.07;8.03;;;;;;;16.69;84.22;101147.66;4984827;28;20308;-71
2023/08/14 04:37:17;;;;;;;9.60;8.60;;;;;;;16.74;84.26;101140.13;4987036;28;20207;-71
2023/08/14 04:39:44;;;;;;;9.13;8.23;;;;;;;16.80;84.08;101140.59;4980557;28;20223;-71
2023/08/14 04:42:10;;;;;;;12.17;8.30;;;;;;;16.86;84.26;101139.22;4977859;28;21387;-71
2023/08/14 04:44:37;;;;;;;9.40;7.80;;;;;;;16.91;84.29;101142.34;4984689;28;20807;-71
2023/08/14 04:47:03;;;;;;;8.83;7.97;;;;;;;16.97;84.24;101148.19;4983158;28;20687;-71
2023/08/14 04:49:31;;;;;;;8.93;8.07;;;;;;;17.04;84.26;101150.97;4976729;28;20318;-71
2023/08/14 04:51:59;;;;;;;9.97;7.90;;;;;;;17.11;83.86;101148.41;4978809;28;20235;-70
2023/08/14 04:54:26;;;;;;;8.90;8.07;;;;;;;17.18;83.65;101154.66;4978423;28;20211;-70
2023/08/14 04:56:52;;;;;;;7.93;7.03;;;;;;;17.25;83.75;101152.13;4979534;28;20199;-71
2023/08/14 04:59:19;;;;;;;10.73;7.53;;;;;;;17.33;83.79;101148.44;4976765;28;21457;-70
2023/08/14 05:01:45;;;;;;;8.67;7.77;;;;;;;17.40;83.58;101139.81;4980958;28;20701;-71
2023/08/14 05:04:13;;;;;;;9.60;7.60;;;;;;;17.49;83.78;101153.69;4984122;28;21016;-71
2023/08/14 05:06:40;;;;;;;7.23;6.53;;;;;;;17.56;83.55;101143.88;4982954;28;20229;-71
2023/08/14 05:09:07;;;;;;;9.00;7.60;;;;;;;17.64;83.64;101152.78;4989006;28;20204;-71
2023/08/14 05:11:34;;;;;;;7.10;6.30;;;;;;;17.70;83.19;101154.03;4985141;28;20759;-71
2023/08/14 05:14:01;;;;;;;8.67;6.90;;;;;;;17.75;82.89;101153.72;4982988;28;20207;-70
2023/08/14 05:16:27;;;;;;;7.50;6.63;;;;;;;17.83;82.27;101150.00;4979721;28;20222;-71
2023/08/14 05:18:56;;;;;;;7.13;6.43;;;;;;;17.88;82.51;101147.81;4990592;28;20207;-70
2023/08/14 05:21:22;;;;;;;8.00;6.70;;;;;;;17.94;82.50;101151.69;4989514;28;21013;-71
2023/08/14 05:23:48;;;;;;;7.03;6.27;;;;;;;18.01;82.40;101154.47;4992042;28;20203;-70
2023/08/14 05:26:16;;;;;;;7.30;6.17;;;;;;;18.09;82.36;101155.34;4991661;28;20211;-70
2023/08/14 05:28:42;;;;;;;6.73;6.03;;;;;;;18.18;82.57;101164.66;4989410;28;20215;-71
2023/08/14 05:31:08;;;;;;;6.90;6.20;;;;;;;18.27;82.48;101164.38;4987805;28;20238;-71
2023/08/14 05:33:35;;;;;;;6.47;5.97;;;;;;;18.37;82.11;101177.16;4987526;28;20250;-70
2023/08/14 05:36:01;;;;;;;6.40;5.80;;;;;;;18.45;82.14;101173.41;4991231;28;21619;-71
2023/08/14 05:38:27;;;;;;;8.30;6.20;;;;;;;18.56;81.85;101175.09;4993799;28;20219;-71
2023/08/14 05:40:54;;;;;;;5.90;5.40;;;;;;;18.66;81.75;101173.66;4992880;28;20238;-71
2023/08/14 05:43:21;;;;;;;6.57;5.80;;;;;;;18.77;81.67;101167.31;4989624;28;20222;-71
2023/08/14 05:45:49;;;;;;;7.20;5.43;;;;;;;18.87;80.71;101166.66;4990934;28;20243;-71
2023/08/14 05:48:15;;;;;;;6.03;4.97;;;;;;;18.97;79.79;101163.31;4996249;28;20218;-71
2023/08/14 05:50:42;;;;;;;6.53;5.37;;;;;;;19.09;80.13;101173.75;4991582;28;20227;-71
2023/08/14 05:53:09;;;;;;;6.53;5.93;;;;;;;19.18;80.28;101162.75;4986078;28;20222;-71
2023/08/14 05:55:37;;;;;;;5.93;5.23;;;;;;;19.29;79.58;101163.63;4992162;28;20233;-71
2023/08/14 05:58:04;;;;;;;6.47;5.20;;;;;;;19.39;79.62;101168.31;4991365;28;21222;-71
2023/08/14 06:00:32;;;;;;;5.97;5.43;;;;;;;19.49;79.53;101165.72;4990662;28;20223;-71
2023/08/14 06:02:58;;;;;;;6.60;5.40;;;;;;;19.59;79.25;101161.59;4986843;28;20948;-71
2023/08/14 06:05:25;;;;;;;4.93;4.53;;;;;;;19.70;78.67;101165.13;4989960;28;20708;-71
2023/08/14 06:07:53;;;;;;;6.33;4.63;;;;;;;19.79;78.42;101174.38;4988954;28;20787;-71
2023/08/14 06:10:19;;;;;;;5.23;4.43;;;;;;;19.88;78.19;101166.78;4991565;28;20258;-71
2023/08/14 06:12:48;;;;;;;5.50;4.47;;;;;;;19.99;77.55;101177.56;4992431;28;20214;-71
2023/08/14 06:15:15;;;;;;;4.70;4.20;;;;;;;20.09;77.20;101177.69;4997528;28;20317;-71
2023/08/14 06:17:43;;;;;;;4.67;4.27;;;;;;;20.20;77.10;101181.19;4991843;28;20208;-71
2023/08/14 06:20:11;;;;;;;4.30;3.90;;;;;;;20.30;76.91;101174.31;4993814;28;20223;-71
2023/08/14 06:22:39;;;;;;;4.27;3.67;;;;;;;20.38;76.50;101163.25;4989382;28;20207;-71
2023/08/14 06:25:06;;;;;;;4.47;4.07;;;;;;;20.49;76.20;101168.69;4994292;28;20302;-71
2023/08/14 06:27:33;;;;;;;5.07;3.77;;;;;;;20.58;76.06;101166.38;4991588;28;20223;-71
2023/08/14 06:29:59;;;;;;;4.10;3.70;;;;;;;20.68;75.94;101153.03;4994345;28;20250;-71
2023/08/14 06:32:25;;;;;;;6.03;3.90;;;;;;;20.77;75.58;101166.06;4992897;28;20227;-71
2023/08/14 06:34:53;;;;;;;4.47;4.07;;;;;;;20.85;74.96;101159.59;4986376;28;20234;-70
2023/08/14 06:37:19;;;;;;;4.00;3.70;;;;;;;20.94;74.88;101162.69;4993703;28;20574;-71
2023/08/14 06:39:46;;;;;;;4.77;4.07;;;;;;;21.04;75.14;101176.16;4992005;28;20230;-71
2023/08/14 06:42:12;;;;;;;4.03;3.73;;;;;;;21.15;74.60;101182.31;4992763;28;20206;-70
2023/08/14 06:44:39;;;;;;;4.20;3.83;;;;;;;21.25;74.20;101175.41;4990794;28;20568;-71
2023/08/14 06:47:06;;;;;;;3.90;3.60;;;;;;;21.35;73.66;101182.69;4991321;28;20217;-71
2023/08/14 06:49:32;;;;;;;3.97;3.57;;;;;;;21.44;73.34;101181.19;4993289;28;20427;-71
2023/08/14 06:52:00;;;;;;;3.90;3.60;;;;;;;21.55;73.42;101175.78;4993526;28;20235;-71
2023/08/14 06:54:26;;;;;;;4.20;3.80;;;;;;;21.66;73.25;101173.88;4994190;28;20223;-71
2023/08/14 06:56:52;;;;;;;4.50;3.47;;;;;;;21.79;73.19;101169.66;4990141;28;20219;-71
2023/08/14 06:59:19;;;;;;;3.83;3.42;;;;;;;21.93;71.04;101172.34;4992033;28;20236;-72
2023/08/14 07:01:45;;;;;;;4.65;3.50;;;;;;;22.03;71.72;101182.28;4990980;28;20293;-71
2023/08/14 07:04:12;;;;;;;4.20;3.40;;;;;;;22.12;71.39;101180.75;4990784;28;20349;-71
2023/08/14 07:06:38;;;;;;;6.88;3.28;;;;;;;22.22;70.96;101166.50;4988823;28;20215;-71
2023/08/14 07:09:06;;;;;;;3.90;3.45;;;;;;;22.32;70.81;101175.69;4987813;28;20203;-71
2023/08/14 07:11:38;;;;;;;4.18;3.08;;;;;;;22.40;70.64;101179.91;4990216;28;20335;-71
2023/08/14 07:14:04;;;;;;;5.00;3.08;;;;;;;22.49;69.82;101177.56;4991137;28;20601;-71
2023/08/14 07:16:30;;;;;;;3.28;2.78;;;;;;;22.56;68.87;101172.91;4991580;28;20222;-71
2023/08/14 07:18:57;;;;;;;4.05;2.90;;;;;;;22.66;68.29;101172.09;4989232;28;20203;-71
2023/08/14 07:21:23;;;;;;;3.75;2.63;;;;;;;22.75;67.82;101171.66;4996201;28;20230;-71
2023/08/14 07:23:50;;;;;;;4.35;2.97;;;;;;;22.84;67.42;101166.63;4991921;28;21533;-71
2023/08/14 07:26:17;;;;;;;3.50;2.47;;;;;;;22.93;66.59;101169.66;4994629;28;20580;-71
2023/08/14 07:28:43;;;;;;;6.20;2.63;;;;;;;23.01;66.05;101169.22;4992681;28;20518;-71
2023/08/14 07:31:10;;;;;;;2.90;2.60;;;;;;;23.10;65.20;101166.84;4992623;28;20697;-71
2023/08/14 07:33:37;;;;;;;4.35;2.88;;;;;;;23.20;66.94;101167.97;4986397;28;20199;-70
2023/08/14 07:36:04;;;;;;;3.83;2.70;;;;;;;23.32;64.25;101174.81;4995055;28;20214;-71
2023/08/14 07:38:30;;;;;;;2.95;2.65;;;;;;;23.41;64.89;101172.44;4992922;28;21346;-71
2023/08/14 07:40:57;;;;;;;4.45;2.42;;;;;;;23.49;64.63;101164.63;4991116;28;20234;-71
2023/08/14 07:43:25;;;;;;;3.30;2.10;;;;;;;23.62;61.99;101167.63;4990953;28;20222;-71
2023/08/14 07:45:52;;;;;;;2.88;2.05;;;;;;;23.73;62.07;101164.84;4991890;28;20935;-71
2023/08/14 07:48:19;;;;;;;2.10;1.90;;;;;;;23.83;60.49;101163.97;4988077;28;20807;-71
2023/08/14 07:50:45;;;;;;;6.47;2.03;;;;;;;23.92;60.10;101153.47;4983052;28;21803;-70
2023/08/14 07:53:11;;;;;;;3.63;1.85;;;;;;;24.04;60.84;101153.72;4991459;28;20214;-71
2023/08/14 07:55:38;;;;;;;2.70;1.70;;;;;;;24.15;59.09;101156.31;4991273;28;20207;-71
2023/08/14 07:58:04;;;;;;;5.03;1.85;;;;;;;24.27;60.48;101164.66;4992293;28;20241;-71
2023/08/14 08:00:32;;;;;;;3.03;1.75;;;;;;;24.38;57.01;101153.72;4993397;28;20231;-71
2023/08/14 08:02:58;;;;;;;2.55;1.88;;;;;;;24.48;56.20;101156.31;4988882;28;20214;-71
2023/08/14 08:05:25;;;;;;;3.35;1.90;;;;;;;24.61;56.52;101153.84;4993168;28;20865;-71
2023/08/14 08:07:51;;;;;;;1.60;1.50;;;;;;;24.72;55.98;101152.53;4990890;28;20203;-71
2023/08/14 08:10:17;;;;;;;2.03;1.70;;;;;;;24.82;51.81;101153.56;4991276;28;20597;-71
2023/08/14 08:12:44;;;;;;;4.05;1.80;;;;;;;24.94;50.24;101167.28;4986283;28;20219;-70
2023/08/14 08:15:10;;;;;;;2.00;1.60;;;;;;;25.04;51.92;101152.06;4992555;28;21573;-71
2023/08/14 08:17:38;;;;;;;2.80;1.50;;;;;;;25.15;53.21;101158.09;4993956;28;20328;-71
2023/08/14 08:20:07;;;;;;;2.85;2.10;;;;;;;25.27;54.93;101155.59;4990151;28;20234;-71
2023/08/14 08:22:34;;;;;;;1.90;1.60;;;;;;;25.38;53.84;101160.84;4991462;28;20204;-71
2023/08/14 08:25:00;;;;;;;3.17;1.77;;;;;;;25.49;50.28;101153.31;4989780;28;20214;-70
2023/08/14 08:27:27;;;;;;;2.45;1.95;;;;;;;25.57;54.74;101163.59;4993939;28;20219;-71
2023/08/14 08:29:53;;;;;;;2.20;1.90;;;;;;;25.66;52.16;101171.94;4989594;28;20223;-71
2023/08/14 08:32:19;;;;;;;1.80;1.50;;;;;;;25.78;51.31;101165.94;4991937;28;21323;-71
2023/08/14 08:34:47;;;;;;;4.43;2.15;;;;;;;25.90;53.58;101167.28;4990894;28;20305;-70
2023/08/14 08:37:16;;;;;;;1.77;1.50;;;;;;;26.00;48.04;101171.75;4992415;28;20211;-71
2023/08/14 08:39:42;;;;;;;1.77;1.38;;;;;;;26.07;50.59;101161.56;4987707;28;20340;-71
2023/08/14 08:42:09;;;;;;;3.38;1.48;;;;;;;26.15;49.93;101162.19;4987160;28;20217;-71
2023/08/14 08:44:39;;;;;;;2.03;1.40;;;;;;;26.23;50.01;101156.22;4988205;28;20842;-70
2023/08/14 08:47:08;;;;;;;1.50;1.40;;;;;;;26.32;49.65;101155.66;4987503;28;20724;-71
2023/08/14 08:49:35;;;;;;;3.22;1.63;;;;;;;26.39;46.38;101153.56;4987367;28;20227;-71
2023/08/14 08:52:04;;;;;;;2.75;1.73;;;;;;;26.49;44.83;101146.38;4989810;28;20258;-71
2023/08/14 08:54:31;;;;;;;1.55;1.45;;;;;;;26.60;48.75;101155.06;4991389;28;20302;-71
2023/08/14 08:56:59;;;;;;;1.63;1.35;;;;;;;26.71;50.64;101147.47;4988741;28;20219;-71
2023/08/14 08:59:26;;;;;;;3.45;1.50;;;;;;;26.80;47.13;101155.78;4992697;28;21450;-71
2023/08/14 09:01:53;;;;;;;2.70;2.05;;;;;;;26.89;48.61;101155.97;4979895;28;20214;-71
2023/08/14 09:04:20;;;;;;;1.88;1.40;;;;;;;26.92;44.17;101155.13;4991606;28;20207;-71
2023/08/14 09:06:46;;;;;;;2.38;1.52;;;;;;;26.99;45.68;101150.31;4991725;28;20823;-71
2023/08/14 09:09:15;;;;;;;3.25;1.42;;;;;;;27.07;48.70;101143.53;4990806;28;21711;-71
2023/08/14 09:11:41;;;;;;;1.90;1.45;;;;;;;27.14;45.62;101150.75;4991184;28;20704;-71
2023/08/14 09:14:07;;;;;;;2.10;1.50;;;;;;;27.22;47.31;101146.69;4995058;28;21393;-71
2023/08/14 09:16:34;;;;;;;3.28;1.52;;;;;;;27.27;48.11;101144.25;4993875;28;20207;-71
2023/08/14 09:19:01;;;;;;;2.22;1.33;;;;;;;27.32;42.14;101145.69;4994174;28;20211;-71
2023/08/14 09:21:29;;;;;;;2.05;1.60;;;;;;;27.35;44.04;101140.16;4996928;28;20702;-70
2023/08/14 09:23:56;;;;;;;2.47;1.70;;;;;;;27.38;45.08;101143.97;4992975;28;20207;-71
2023/08/14 09:26:24;;;;;;;1.63;1.50;;;;;;;27.37;45.14;101143.22;4993655;28;20226;-71
2023/08/14 09:28:50;;;;;;;5.15;1.55;;;;;;;27.42;41.78;101141.94;4992141;28;20719;-70
2023/08/14 09:31:17;;;;;;;3.40;1.77;;;;;;;27.45;43.21;101151.94;4992744;28;20413;-71
2023/08/14 09:33:45;;;;;;;2.30;1.27;;;;;;;27.47;42.55;101146.84;4997183;28;20218;-71
2023/08/14 09:36:12;;;;;;;2.70;1.60;;;;;;;27.49;46.41;101144.47;4993561;28;20222;-71
2023/08/14 09:38:39;;;;;;;4.00;1.50;;;;;;;27.55;47.22;101143.53;4994839;28;20222;-71
2023/08/14 09:41:06;;;;;;;2.40;1.80;;;;;;;27.63;44.44;101141.38;4994239;28;20223;-71
2023/08/14 09:43:34;;;;;;;2.45;1.55;;;;;;;27.71;46.34;101146.19;4993697;28;20204;-71
2023/08/14 09:46:02;;;;;;;2.75;1.60;;;;;;;27.81;44.38;101145.19;4993452;28;20219;-71
2023/08/14 09:48:40;;;;;;;2.78;1.58;;;;;;;27.87;43.24;101137.28;4995446;28;20217;-70
2023/08/14 09:51:10;;;;;;;2.65;1.60;;;;;;;27.98;42.48;101135.06;4991466;28;20241;-71
2023/08/14 09:53:44;;;;;;;2.60;1.50;;;;;;;28.04;45.24;101142.25;4986256;28;20231;-70
2023/08/14 09:56:11;;;;;;;1.92;1.63;;;;;;;28.12;42.22;101132.69;4983588;28;20538;-71
2023/08/14 09:58:39;;;;;;;2.40;1.60;;;;;;;28.22;41.05;101139.03;4992854;28;20214;-71
2023/08/14 10:01:06;;;;;;;4.10;1.75;;;;;;;28.34;45.57;101130.13;4991953;28;20223;-71
2023/08/14 10:03:34;;;;;;;2.15;1.77;;;;;;;28.42;43.47;101134.94;4995014;28;20243;-71
2023/08/14 10:06:01;;;;;;;1.80;1.52;;;;;;;28.47;40.46;101128.22;4992655;28;20200;-71
2023/08/14 10:08:30;;;;;;;5.43;1.77;;;;;;;28.55;41.37;101137.69;4994224;28;20207;-71
2023/08/14 10:10:57;;;;;;;3.13;1.50;;;;;;;28.66;43.96;101136.19;4990572;28;20574;-71
2023/08/14 10:13:25;;;;;;;3.10;1.58;;;;;;;28.75;40.63;101128.09;4993468;28;20219;-71
2023/08/14 10:15:56;;;;;;;1.88;1.77;;;;;;;28.83;43.12;101134.84;4996615;28;20257;-71
2023/08/14 10:18:24;;;;;;;2.17;1.60;;;;;;;28.93;40.93;101135.72;4994971;28;20215;-71
2023/08/14 10:20:54;;;;;;;2.22;1.65;;;;;;;29.05;39.91;101138.44;4993761;28;20246;-71
2023/08/14 10:23:21;;;;;;;1.85;1.65;;;;;;;29.15;40.89;101133.88;4993139;28;20215;-71
2023/08/14 10:25:50;;;;;;;1.70;1.60;;;;;;;29.24;39.61;101134.72;4991652;28;21113;-71
2023/08/14 10:28:17;;;;;;;1.42;1.33;;;;;;;29.33;42.36;101123.16;4996060;28;20577;-71
2023/08/14 10:30:45;;;;;;;2.15;1.80;;;;;;;29.39;40.16;101129.56;4994423;28;20696;-71
2023/08/14 10:33:13;;;;;;;2.30;1.63;;;;;;;29.45;42.72;101119.63;4988916;28;20246;-71
2023/08/14 10:35:49;;;;;;;2.45;1.65;;;;;;;29.46;39.80;101111.03;4995362;28;20215;-71
2023/08/14 10:38:16;;;;;;;3.08;1.90;;;;;;;29.55;41.37;101119.31;4993185;28;20213;-71
2023/08/14 10:40:52;;;;;;;1.60;1.40;;;;;;;29.64;39.94;101115.91;4992210;28;20311;-71
2023/08/14 10:43:18;;;;;;;2.50;1.80;;;;;;;29.71;39.98;101118.38;4994174;28;20305;-71
2023/08/14 10:45:45;;;;;;;3.17;1.80;;;;;;;29.74;40.57;101115.53;4994709;28;20210;-71
2023/08/14 10:48:12;;;;;;;2.30;1.73;;;;;;;29.75;39.71;101110.84;4991206;28;21529;-71
2023/08/14 10:50:39;;;;;;;1.80;1.70;;;;;;;29.84;40.70;101117.09;4992414;28;20239;-71
2023/08/14 10:53:06;;;;;;;5.43;1.80;;;;;;;29.94;39.09;101112.50;4992246;28;20241;-72
2023/08/14 10:55:36;;;;;;;5.40;1.77;;;;;;;29.99;38.06;101109.19;4993590;28;21008;-71
2023/08/14 10:58:38;;;;;;;3.75;1.73;;;;;;;30.00;38.56;101110.72;4992244;28;20296;-71
2023/08/14 11:01:06;;;;;;;1.73;1.55;;;;;;;30.03;38.71;101109.84;4994588;28;20249;-71
2023/08/14 11:03:35;;;;;;;5.22;2.00;;;;;;;30.04;40.21;101116.78;4990970;28;20225;-72
2023/08/14 11:06:01;;;;;;;2.80;1.80;;;;;;;30.08;40.58;101117.44;4990798;28;20211;-71
2023/08/14 11:08:29;;;;;;;4.93;1.88;;;;;;;30.13;41.37;101125.78;4989449;28;20211;-71
2023/08/14 11:10:55;;;;;;;2.60;1.88;;;;;;;30.21;39.07;101116.16;4986871;28;20238;-71
2023/08/14 11:13:22;;;;;;;5.85;1.83;;;;;;;30.27;39.53;101113.59;4989050;28;20223;-71
2023/08/14 11:15:49;;;;;;;2.17;1.60;;;;;;;30.33;40.00;101114.53;4994002;28;20314;-70
2023/08/14 11:18:16;;;;;;;2.13;1.73;;;;;;;30.34;39.48;101105.94;4988802;28;20214;-71
2023/08/14 11:20:45;;;;;;;2.22;1.60;;;;;;;30.33;39.07;101109.88;4990249;28;20243;-71
2023/08/14 11:23:11;;;;;;;3.03;2.13;;;;;;;30.31;39.88;101106.84;4983681;28;20226;-71
2023/08/14 11:25:39;;;;;;;3.67;1.75;;;;;;;30.38;38.24;101111.22;4984609;28;20222;-71